sensor_id;sensor_type;location;lat;lon;timestamp;P1;durP1;ratioP1;P2;durP2;ratioP2
62179;SDS011;48172;53.374;10.722;2022-12-24T00:01:01;40.05;;;27.73;;
62179;SDS011;48172;53.374;10.722;2022-12-24T00:03:29;41.63;;;27.85;;
62179;SDS011;48172;53.374;10.722;2022-12-24T00:05:55;39.60;;;26.70;;
62179;SDS011;48172;53.374;10.722;2022-12-24T00:08:22;38.28;;;26.83;;
62179;SDS011;48172;53.374;10.722;2022-12-24T00:10:50;39.63;;;27.17;;
62179;SDS011;48172;53.374;10.722;2022-12-24T00:13:17;39.90;;;26.20;;
62179;SDS011;48172;53.374;10.722;2022-12-24T00:15:44;37.65;;;25.60;;
62179;SDS011;48172;53.374;10.722;2022-12-24T00:18:11;37.85;;;25.52;;
62179;SDS011;48172;53.374;10.722;2022-12-24T00:20:37;37.70;;;25.50;;
62179;SDS011;48172;53.374;10.722;2022-12-24T00:23:04;35.42;;;24.65;;
62179;SDS011;48172;53.374;10.722;2022-12-24T00:25:31;39.15;;;26.42;;
62179;SDS011;48172;53.374;10.722;2022-12-24T00:27:57;37.22;;;25.13;;
62179;SDS011;48172;53.374;10.722;2022-12-24T00:30:24;36.10;;;23.77;;
62179;SDS011;48172;53.374;10.722;2022-12-24T00:32:50;34.78;;;24.13;;
62179;SDS011;48172;53.374;10.722;2022-12-24T00:35:17;33.38;;;24.13;;
62179;SDS011;48172;53.374;10.722;2022-12-24T00:37:45;36.05;;;24.73;;
62179;SDS011;48172;53.374;10.722;2022-12-24T00:40:13;35.90;;;23.95;;
62179;SDS011;48172;53.374;10.722;2022-12-24T00:42:40;32.97;;;23.90;;
62179;SDS011;48172;53.374;10.722;2022-12-24T00:45:08;32.97;;;23.00;;
62179;SDS011;48172;53.374;10.722;2022-12-24T00:47:35;34.90;;;24.05;;
62179;SDS011;48172;53.374;10.722;2022-12-24T00:50:02;31.50;;;22.50;;
62179;SDS011;48172;53.374;10.722;2022-12-24T00:52:30;35.45;;;23.58;;
62179;SDS011;48172;53.374;10.722;2022-12-24T00:54:56;34.28;;;22.88;;
62179;SDS011;48172;53.374;10.722;2022-12-24T00:57:23;34.25;;;23.45;;
62179;SDS011;48172;53.374;10.722;2022-12-24T00:59:49;32.22;;;21.80;;
62179;SDS011;48172;53.374;10.722;2022-12-24T01:02:16;30.55;;;20.67;;
62179;SDS011;48172;53.374;10.722;2022-12-24T01:04:43;31.17;;;21.90;;
62179;SDS011;48172;53.374;10.722;2022-12-24T01:07:27;32.70;;;21.33;;
62179;SDS011;48172;53.374;10.722;2022-12-24T01:09:54;30.83;;;21.55;;
62179;SDS011;48172;53.374;10.722;2022-12-24T01:12:20;29.25;;;20.98;;
62179;SDS011;48172;53.374;10.722;2022-12-24T01:14:47;30.85;;;21.10;;
62179;SDS011;48172;53.374;10.722;2022-12-24T01:17:13;29.88;;;20.40;;
62179;SDS011;48172;53.374;10.722;2022-12-24T01:19:40;30.38;;;21.02;;
62179;SDS011;48172;53.374;10.722;2022-12-24T01:22:07;30.58;;;21.13;;
62179;SDS011;48172;53.374;10.722;2022-12-24T01:24:33;29.30;;;21.27;;
62179;SDS011;48172;53.374;10.722;2022-12-24T01:27:00;29.05;;;19.48;;
62179;SDS011;48172;53.374;10.722;2022-12-24T01:29:26;27.33;;;19.38;;
62179;SDS011;48172;53.374;10.722;2022-12-24T01:31:53;28.38;;;18.75;;
62179;SDS011;48172;53.374;10.722;2022-12-24T01:34:20;29.17;;;19.75;;
62179;SDS011;48172;53.374;10.722;2022-12-24T01:36:46;28.08;;;19.65;;
62179;SDS011;48172;53.374;10.722;2022-12-24T01:39:13;27.15;;;18.65;;
62179;SDS011;48172;53.374;10.722;2022-12-24T01:41:39;29.40;;;19.13;;
62179;SDS011;48172;53.374;10.722;2022-12-24T01:44:28;27.50;;;18.30;;
62179;SDS011;48172;53.374;10.722;2022-12-24T01:49:48;28.00;;;18.70;;
62179;SDS011;48172;53.374;10.722;2022-12-24T01:52:18;27.13;;;18.73;;
62179;SDS011;48172;53.374;10.722;2022-12-24T01:54:55;26.15;;;18.60;;
62179;SDS011;48172;53.374;10.722;2022-12-24T01:57:27;24.73;;;17.25;;
62179;SDS011;48172;53.374;10.722;2022-12-24T02:00:06;25.02;;;17.08;;
62179;SDS011;48172;53.374;10.722;2022-12-24T02:05:07;26.27;;;18.17;;
62179;SDS011;48172;53.374;10.722;2022-12-24T02:07:35;25.52;;;17.10;;
62179;SDS011;48172;53.374;10.722;2022-12-24T02:10:02;22.33;;;16.75;;
62179;SDS011;48172;53.374;10.722;2022-12-24T02:12:29;23.60;;;16.50;;
62179;SDS011;48172;53.374;10.722;2022-12-24T02:15:00;23.63;;;16.27;;
62179;SDS011;48172;53.374;10.722;2022-12-24T02:22:56;24.48;;;17.48;;
62179;SDS011;48172;53.374;10.722;2022-12-24T02:28:51;23.65;;;15.88;;
62179;SDS011;48172;53.374;10.722;2022-12-24T02:31:44;22.90;;;15.88;;
62179;SDS011;48172;53.374;10.722;2022-12-24T02:35:00;21.95;;;15.95;;
62179;SDS011;48172;53.374;10.722;2022-12-24T02:37:35;20.65;;;14.48;;
62179;SDS011;48172;53.374;10.722;2022-12-24T02:40:07;22.33;;;15.65;;
62179;SDS011;48172;53.374;10.722;2022-12-24T02:42:43;22.27;;;15.60;;
62179;SDS011;48172;53.374;10.722;2022-12-24T02:45:17;22.98;;;15.20;;
62179;SDS011;48172;53.374;10.722;2022-12-24T02:47:47;22.33;;;15.05;;
62179;SDS011;48172;53.374;10.722;2022-12-24T02:50:15;22.70;;;15.25;;
62179;SDS011;48172;53.374;10.722;2022-12-24T02:52:43;19.63;;;14.07;;
62179;SDS011;48172;53.374;10.722;2022-12-24T02:55:12;21.92;;;14.88;;
62179;SDS011;48172;53.374;10.722;2022-12-24T03:06:07;18.92;;;12.85;;
62179;SDS011;48172;53.374;10.722;2022-12-24T03:08:47;19.65;;;13.63;;
62179;SDS011;48172;53.374;10.722;2022-12-24T03:11:20;21.40;;;14.85;;
62179;SDS011;48172;53.374;10.722;2022-12-24T03:13:47;20.65;;;14.02;;
62179;SDS011;48172;53.374;10.722;2022-12-24T03:16:15;18.55;;;13.75;;
62179;SDS011;48172;53.374;10.722;2022-12-24T03:18:47;19.77;;;13.83;;
62179;SDS011;48172;53.374;10.722;2022-12-24T03:21:20;17.85;;;12.75;;
62179;SDS011;48172;53.374;10.722;2022-12-24T03:23:51;18.30;;;12.85;;
62179;SDS011;48172;53.374;10.722;2022-12-24T03:26:17;17.40;;;12.55;;
62179;SDS011;48172;53.374;10.722;2022-12-24T03:28:45;17.58;;;13.15;;
62179;SDS011;48172;53.374;10.722;2022-12-24T03:31:13;19.05;;;13.18;;
62179;SDS011;48172;53.374;10.722;2022-12-24T03:33:40;18.48;;;13.02;;
62179;SDS011;48172;53.374;10.722;2022-12-24T03:36:07;16.48;;;12.18;;
62179;SDS011;48172;53.374;10.722;2022-12-24T03:38:34;17.92;;;12.23;;
62179;SDS011;48172;53.374;10.722;2022-12-24T03:41:01;17.17;;;11.90;;
62179;SDS011;48172;53.374;10.722;2022-12-24T03:43:28;19.15;;;13.00;;
62179;SDS011;48172;53.374;10.722;2022-12-24T03:45:55;15.75;;;12.23;;
62179;SDS011;48172;53.374;10.722;2022-12-24T03:48:21;17.65;;;12.55;;
62179;SDS011;48172;53.374;10.722;2022-12-24T03:50:57;16.70;;;11.48;;
62179;SDS011;48172;53.374;10.722;2022-12-24T03:53:23;17.20;;;12.25;;
62179;SDS011;48172;53.374;10.722;2022-12-24T03:55:50;15.20;;;11.23;;
62179;SDS011;48172;53.374;10.722;2022-12-24T03:58:16;16.42;;;11.43;;
62179;SDS011;48172;53.374;10.722;2022-12-24T04:00:43;15.40;;;10.82;;
62179;SDS011;48172;53.374;10.722;2022-12-24T04:03:09;16.75;;;11.82;;
62179;SDS011;48172;53.374;10.722;2022-12-24T04:05:36;16.05;;;11.68;;
62179;SDS011;48172;53.374;10.722;2022-12-24T04:08:02;16.50;;;11.52;;
62179;SDS011;48172;53.374;10.722;2022-12-24T04:10:29;16.05;;;11.18;;
62179;SDS011;48172;53.374;10.722;2022-12-24T04:12:55;16.10;;;11.27;;
62179;SDS011;48172;53.374;10.722;2022-12-24T04:15:22;15.80;;;10.93;;
62179;SDS011;48172;53.374;10.722;2022-12-24T04:17:48;13.90;;;10.30;;
62179;SDS011;48172;53.374;10.722;2022-12-24T04:20:15;15.60;;;11.23;;
62179;SDS011;48172;53.374;10.722;2022-12-24T04:22:41;15.20;;;10.57;;
62179;SDS011;48172;53.374;10.722;2022-12-24T04:25:08;14.07;;;9.88;;
62179;SDS011;48172;53.374;10.722;2022-12-24T04:27:35;13.65;;;9.60;;
62179;SDS011;48172;53.374;10.722;2022-12-24T04:30:01;13.73;;;10.30;;
62179;SDS011;48172;53.374;10.722;2022-12-24T04:32:28;14.40;;;10.40;;
62179;SDS011;48172;53.374;10.722;2022-12-24T04:34:54;14.90;;;10.82;;
62179;SDS011;48172;53.374;10.722;2022-12-24T04:37:21;14.57;;;10.27;;
62179;SDS011;48172;53.374;10.722;2022-12-24T04:39:47;13.73;;;9.80;;
62179;SDS011;48172;53.374;10.722;2022-12-24T04:42:14;13.45;;;9.25;;
62179;SDS011;48172;53.374;10.722;2022-12-24T04:44:40;13.80;;;9.70;;
62179;SDS011;48172;53.374;10.722;2022-12-24T04:47:07;13.32;;;9.65;;
62179;SDS011;48172;53.374;10.722;2022-12-24T04:49:33;13.10;;;9.13;;
62179;SDS011;48172;53.374;10.722;2022-12-24T04:52:00;14.25;;;9.93;;
62179;SDS011;48172;53.374;10.722;2022-12-24T04:54:26;12.07;;;9.07;;
62179;SDS011;48172;53.374;10.722;2022-12-24T04:56:53;12.23;;;9.10;;
62179;SDS011;48172;53.374;10.722;2022-12-24T04:59:19;14.15;;;10.15;;
62179;SDS011;48172;53.374;10.722;2022-12-24T05:01:46;13.40;;;9.15;;
62179;SDS011;48172;53.374;10.722;2022-12-24T05:04:12;12.88;;;9.68;;
62179;SDS011;48172;53.374;10.722;2022-12-24T05:06:39;12.70;;;8.93;;
62179;SDS011;48172;53.374;10.722;2022-12-24T05:09:06;13.20;;;9.70;;
62179;SDS011;48172;53.374;10.722;2022-12-24T05:11:32;12.88;;;9.00;;
62179;SDS011;48172;53.374;10.722;2022-12-24T05:13:58;13.55;;;9.57;;
62179;SDS011;48172;53.374;10.722;2022-12-24T05:16:25;11.52;;;8.80;;
62179;SDS011;48172;53.374;10.722;2022-12-24T05:18:51;11.52;;;8.73;;
62179;SDS011;48172;53.374;10.722;2022-12-24T05:21:20;11.80;;;8.50;;
62179;SDS011;48172;53.374;10.722;2022-12-24T05:23:48;11.15;;;8.07;;
62179;SDS011;48172;53.374;10.722;2022-12-24T05:26:38;12.63;;;8.82;;
62179;SDS011;48172;53.374;10.722;2022-12-24T05:29:15;13.48;;;9.10;;
62179;SDS011;48172;53.374;10.722;2022-12-24T05:31:43;11.50;;;8.45;;
62179;SDS011;48172;53.374;10.722;2022-12-24T05:34:10;12.65;;;8.70;;
62179;SDS011;48172;53.374;10.722;2022-12-24T05:36:38;10.85;;;7.93;;
62179;SDS011;48172;53.374;10.722;2022-12-24T05:39:05;11.70;;;8.68;;
62179;SDS011;48172;53.374;10.722;2022-12-24T05:41:38;10.32;;;7.80;;
62179;SDS011;48172;53.374;10.722;2022-12-24T05:44:05;11.68;;;8.70;;
62179;SDS011;48172;53.374;10.722;2022-12-24T05:46:31;10.98;;;7.88;;
62179;SDS011;48172;53.374;10.722;2022-12-24T05:48:58;10.80;;;8.23;;
62179;SDS011;48172;53.374;10.722;2022-12-24T05:51:24;10.95;;;7.90;;
62179;SDS011;48172;53.374;10.722;2022-12-24T05:53:51;10.48;;;7.60;;
62179;SDS011;48172;53.374;10.722;2022-12-24T05:56:20;10.18;;;7.75;;
62179;SDS011;48172;53.374;10.722;2022-12-24T05:58:47;11.18;;;7.80;;
62179;SDS011;48172;53.374;10.722;2022-12-24T06:01:14;10.57;;;7.50;;
62179;SDS011;48172;53.374;10.722;2022-12-24T06:03:42;9.57;;;6.97;;
62179;SDS011;48172;53.374;10.722;2022-12-24T06:06:12;9.75;;;7.18;;
62179;SDS011;48172;53.374;10.722;2022-12-24T06:08:40;9.10;;;7.10;;
62179;SDS011;48172;53.374;10.722;2022-12-24T06:11:09;9.50;;;6.60;;
62179;SDS011;48172;53.374;10.722;2022-12-24T06:13:38;9.90;;;6.95;;
62179;SDS011;48172;53.374;10.722;2022-12-24T06:16:06;9.95;;;6.85;;
62179;SDS011;48172;53.374;10.722;2022-12-24T06:18:34;9.15;;;6.45;;
62179;SDS011;48172;53.374;10.722;2022-12-24T06:21:02;9.40;;;6.50;;
62179;SDS011;48172;53.374;10.722;2022-12-24T06:23:30;9.07;;;6.22;;
62179;SDS011;48172;53.374;10.722;2022-12-24T06:25:59;9.48;;;6.72;;
62179;SDS011;48172;53.374;10.722;2022-12-24T06:28:27;8.25;;;6.13;;
62179;SDS011;48172;53.374;10.722;2022-12-24T06:30:58;9.10;;;6.47;;
62179;SDS011;48172;53.374;10.722;2022-12-24T06:33:29;8.30;;;5.90;;
62179;SDS011;48172;53.374;10.722;2022-12-24T06:35:56;7.30;;;6.10;;
62179;SDS011;48172;53.374;10.722;2022-12-24T06:38:23;7.88;;;6.18;;
62179;SDS011;48172;53.374;10.722;2022-12-24T06:40:50;9.85;;;6.15;;
62179;SDS011;48172;53.374;10.722;2022-12-24T06:43:17;7.97;;;6.00;;
62179;SDS011;48172;53.374;10.722;2022-12-24T06:45:44;7.22;;;5.38;;
62179;SDS011;48172;53.374;10.722;2022-12-24T06:48:12;7.47;;;5.85;;
62179;SDS011;48172;53.374;10.722;2022-12-24T06:50:39;7.75;;;5.60;;
62179;SDS011;48172;53.374;10.722;2022-12-24T06:53:05;8.75;;;5.40;;
62179;SDS011;48172;53.374;10.722;2022-12-24T06:55:32;8.13;;;6.10;;
62179;SDS011;48172;53.374;10.722;2022-12-24T06:57:59;7.55;;;5.90;;
62179;SDS011;48172;53.374;10.722;2022-12-24T07:00:25;7.43;;;6.15;;
62179;SDS011;48172;53.374;10.722;2022-12-24T07:02:52;6.57;;;5.40;;
62179;SDS011;48172;53.374;10.722;2022-12-24T07:05:18;7.25;;;5.90;;
62179;SDS011;48172;53.374;10.722;2022-12-24T07:07:45;7.57;;;5.50;;
62179;SDS011;48172;53.374;10.722;2022-12-24T07:10:12;7.32;;;5.45;;
62179;SDS011;48172;53.374;10.722;2022-12-24T07:12:40;7.05;;;5.43;;
62179;SDS011;48172;53.374;10.722;2022-12-24T07:15:07;6.53;;;5.25;;
62179;SDS011;48172;53.374;10.722;2022-12-24T07:17:35;6.43;;;4.68;;
62179;SDS011;48172;53.374;10.722;2022-12-24T07:20:02;6.13;;;4.47;;
62179;SDS011;48172;53.374;10.722;2022-12-24T07:22:29;6.85;;;5.22;;
62179;SDS011;48172;53.374;10.722;2022-12-24T07:24:56;6.70;;;4.90;;
62179;SDS011;48172;53.374;10.722;2022-12-24T07:27:22;5.53;;;4.32;;
62179;SDS011;48172;53.374;10.722;2022-12-24T07:29:49;6.43;;;4.63;;
62179;SDS011;48172;53.374;10.722;2022-12-24T07:32:15;6.57;;;4.82;;
62179;SDS011;48172;53.374;10.722;2022-12-24T07:34:42;6.50;;;4.72;;
62179;SDS011;48172;53.374;10.722;2022-12-24T07:37:08;6.10;;;4.85;;
62179;SDS011;48172;53.374;10.722;2022-12-24T07:39:35;6.18;;;4.72;;
62179;SDS011;48172;53.374;10.722;2022-12-24T07:42:01;5.28;;;4.22;;
62179;SDS011;48172;53.374;10.722;2022-12-24T07:44:30;6.10;;;4.55;;
62179;SDS011;48172;53.374;10.722;2022-12-24T07:46:57;5.78;;;4.88;;
62179;SDS011;48172;53.374;10.722;2022-12-24T07:49:23;5.30;;;4.57;;
62179;SDS011;48172;53.374;10.722;2022-12-24T07:51:50;5.22;;;4.50;;
62179;SDS011;48172;53.374;10.722;2022-12-24T07:54:16;6.05;;;4.20;;
62179;SDS011;48172;53.374;10.722;2022-12-24T07:56:43;5.03;;;4.03;;
62179;SDS011;48172;53.374;10.722;2022-12-24T07:59:11;5.25;;;4.00;;
62179;SDS011;48172;53.374;10.722;2022-12-24T08:01:38;4.60;;;3.97;;
62179;SDS011;48172;53.374;10.722;2022-12-24T08:04:05;5.95;;;4.15;;
62179;SDS011;48172;53.374;10.722;2022-12-24T08:06:32;5.43;;;3.78;;
62179;SDS011;48172;53.374;10.722;2022-12-24T08:08:58;5.45;;;4.00;;
62179;SDS011;48172;53.374;10.722;2022-12-24T08:11:25;5.63;;;4.22;;
62179;SDS011;48172;53.374;10.722;2022-12-24T08:13:51;4.97;;;3.75;;
62179;SDS011;48172;53.374;10.722;2022-12-24T08:16:18;5.20;;;3.80;;
62179;SDS011;48172;53.374;10.722;2022-12-24T08:18:44;4.63;;;3.60;;
62179;SDS011;48172;53.374;10.722;2022-12-24T08:21:11;5.65;;;4.18;;
62179;SDS011;48172;53.374;10.722;2022-12-24T08:23:37;5.13;;;3.25;;
62179;SDS011;48172;53.374;10.722;2022-12-24T08:26:07;5.30;;;3.60;;
62179;SDS011;48172;53.374;10.722;2022-12-24T08:28:35;5.05;;;4.00;;
62179;SDS011;48172;53.374;10.722;2022-12-24T08:31:02;4.78;;;3.65;;
62179;SDS011;48172;53.374;10.722;2022-12-24T08:33:29;4.85;;;3.42;;
62179;SDS011;48172;53.374;10.722;2022-12-24T08:35:55;5.32;;;3.70;;
62179;SDS011;48172;53.374;10.722;2022-12-24T08:38:22;4.38;;;3.63;;
62179;SDS011;48172;53.374;10.722;2022-12-24T08:40:49;4.95;;;3.47;;
62179;SDS011;48172;53.374;10.722;2022-12-24T08:43:18;4.38;;;3.42;;
62179;SDS011;48172;53.374;10.722;2022-12-24T08:45:45;4.32;;;3.65;;
62179;SDS011;48172;53.374;10.722;2022-12-24T08:48:14;4.78;;;3.80;;
62179;SDS011;48172;53.374;10.722;2022-12-24T08:50:41;4.15;;;3.30;;
62179;SDS011;48172;53.374;10.722;2022-12-24T08:53:08;4.35;;;3.38;;
62179;SDS011;48172;53.374;10.722;2022-12-24T08:55:35;4.60;;;3.53;;
62179;SDS011;48172;53.374;10.722;2022-12-24T08:58:02;3.95;;;3.08;;
62179;SDS011;48172;53.374;10.722;2022-12-24T09:00:29;4.20;;;3.47;;
62179;SDS011;48172;53.374;10.722;2022-12-24T09:02:56;4.80;;;3.60;;
62179;SDS011;48172;53.374;10.722;2022-12-24T09:05:23;4.75;;;3.15;;
62179;SDS011;48172;53.374;10.722;2022-12-24T09:07:51;3.88;;;3.03;;
62179;SDS011;48172;53.374;10.722;2022-12-24T09:10:18;4.25;;;3.30;;
62179;SDS011;48172;53.374;10.722;2022-12-24T09:12:44;3.97;;;3.05;;
62179;SDS011;48172;53.374;10.722;2022-12-24T09:15:11;4.78;;;3.28;;
62179;SDS011;48172;53.374;10.722;2022-12-24T09:17:39;3.42;;;2.83;;
62179;SDS011;48172;53.374;10.722;2022-12-24T09:20:06;4.32;;;3.47;;
62179;SDS011;48172;53.374;10.722;2022-12-24T09:22:37;4.57;;;3.40;;
62179;SDS011;48172;53.374;10.722;2022-12-24T09:25:04;3.65;;;2.80;;
62179;SDS011;48172;53.374;10.722;2022-12-24T09:27:32;3.70;;;3.05;;
62179;SDS011;48172;53.374;10.722;2022-12-24T09:29:59;3.20;;;2.75;;
62179;SDS011;48172;53.374;10.722;2022-12-24T09:32:25;3.78;;;2.97;;
62179;SDS011;48172;53.374;10.722;2022-12-24T09:34:52;3.80;;;3.15;;
62179;SDS011;48172;53.374;10.722;2022-12-24T09:37:19;3.97;;;2.78;;
62179;SDS011;48172;53.374;10.722;2022-12-24T09:39:45;3.40;;;3.00;;
62179;SDS011;48172;53.374;10.722;2022-12-24T09:44:43;3.80;;;3.20;;
62179;SDS011;48172;53.374;10.722;2022-12-24T09:50:02;4.13;;;3.00;;
62179;SDS011;48172;53.374;10.722;2022-12-24T09:52:35;3.35;;;2.65;;
62179;SDS011;48172;53.374;10.722;2022-12-24T09:55:11;3.40;;;2.80;;
62179;SDS011;48172;53.374;10.722;2022-12-24T09:57:39;4.18;;;3.38;;
62179;SDS011;48172;53.374;10.722;2022-12-24T10:00:18;3.45;;;2.70;;
62179;SDS011;48172;53.374;10.722;2022-12-24T10:02:48;3.35;;;2.63;;
62179;SDS011;48172;53.374;10.722;2022-12-24T10:05:16;2.83;;;2.40;;
62179;SDS011;48172;53.374;10.722;2022-12-24T10:07:49;2.97;;;2.55;;
62179;SDS011;48172;53.374;10.722;2022-12-24T10:18:49;3.40;;;2.70;;
62179;SDS011;48172;53.374;10.722;2022-12-24T10:24:21;3.38;;;2.72;;
62179;SDS011;48172;53.374;10.722;2022-12-24T10:26:56;2.72;;;2.40;;
62179;SDS011;48172;53.374;10.722;2022-12-24T10:29:28;3.17;;;2.40;;
62179;SDS011;48172;53.374;10.722;2022-12-24T10:34:35;3.28;;;2.72;;
62179;SDS011;48172;53.374;10.722;2022-12-24T10:37:10;2.50;;;2.20;;
62179;SDS011;48172;53.374;10.722;2022-12-24T10:39:41;2.97;;;2.33;;
62179;SDS011;48172;53.374;10.722;2022-12-24T10:42:08;3.63;;;3.00;;
62179;SDS011;48172;53.374;10.722;2022-12-24T10:44:37;3.28;;;2.30;;
62179;SDS011;48172;53.374;10.722;2022-12-24T10:47:04;3.10;;;2.47;;
62179;SDS011;48172;53.374;10.722;2022-12-24T10:52:16;2.53;;;1.95;;
62179;SDS011;48172;53.374;10.722;2022-12-24T10:57:58;3.00;;;2.50;;
62179;SDS011;48172;53.374;10.722;2022-12-24T11:00:27;2.72;;;2.30;;
62179;SDS011;48172;53.374;10.722;2022-12-24T11:08:32;2.85;;;2.20;;
62179;SDS011;48172;53.374;10.722;2022-12-24T11:11:01;2.55;;;2.30;;
62179;SDS011;48172;53.374;10.722;2022-12-24T11:16:05;3.10;;;2.35;;
62179;SDS011;48172;53.374;10.722;2022-12-24T11:18:37;2.90;;;2.33;;
62179;SDS011;48172;53.374;10.722;2022-12-24T11:21:20;2.70;;;2.40;;
62179;SDS011;48172;53.374;10.722;2022-12-24T11:24:24;2.45;;;2.20;;
62179;SDS011;48172;53.374;10.722;2022-12-24T11:26:53;3.13;;;2.58;;
62179;SDS011;48172;53.374;10.722;2022-12-24T11:29:21;3.13;;;2.60;;
62179;SDS011;48172;53.374;10.722;2022-12-24T11:31:49;2.65;;;2.28;;
62179;SDS011;48172;53.374;10.722;2022-12-24T11:34:25;3.03;;;2.40;;
62179;SDS011;48172;53.374;10.722;2022-12-24T11:37:06;3.28;;;2.47;;
62179;SDS011;48172;53.374;10.722;2022-12-24T11:39:44;2.80;;;2.17;;
62179;SDS011;48172;53.374;10.722;2022-12-24T11:47:50;2.67;;;2.17;;
62179;SDS011;48172;53.374;10.722;2022-12-24T11:52:48;2.78;;;2.30;;
62179;SDS011;48172;53.374;10.722;2022-12-24T12:01:16;2.35;;;2.00;;
62179;SDS011;48172;53.374;10.722;2022-12-24T12:03:55;2.20;;;2.00;;
62179;SDS011;48172;53.374;10.722;2022-12-24T12:06:36;2.83;;;2.50;;
62179;SDS011;48172;53.374;10.722;2022-12-24T12:09:06;2.03;;;1.77;;
62179;SDS011;48172;53.374;10.722;2022-12-24T12:11:38;2.53;;;2.08;;
62179;SDS011;48172;53.374;10.722;2022-12-24T12:14:07;2.58;;;2.08;;
62179;SDS011;48172;53.374;10.722;2022-12-24T12:17:09;2.80;;;2.15;;
62179;SDS011;48172;53.374;10.722;2022-12-24T12:19:42;2.80;;;2.40;;
62179;SDS011;48172;53.374;10.722;2022-12-24T12:22:22;2.35;;;2.00;;
62179;SDS011;48172;53.374;10.722;2022-12-24T12:24:55;2.05;;;1.65;;
62179;SDS011;48172;53.374;10.722;2022-12-24T12:30:02;2.33;;;1.85;;
62179;SDS011;48172;53.374;10.722;2022-12-24T12:32:36;2.55;;;2.08;;
62179;SDS011;48172;53.374;10.722;2022-12-24T12:35:13;2.58;;;1.88;;
62179;SDS011;48172;53.374;10.722;2022-12-24T12:37:45;2.50;;;2.15;;
62179;SDS011;48172;53.374;10.722;2022-12-24T12:40:18;2.78;;;2.10;;
62179;SDS011;48172;53.374;10.722;2022-12-24T12:42:58;2.13;;;1.77;;
62179;SDS011;48172;53.374;10.722;2022-12-24T12:48:29;1.77;;;1.40;;
62179;SDS011;48172;53.374;10.722;2022-12-24T12:51:27;2.05;;;1.85;;
62179;SDS011;48172;53.374;10.722;2022-12-24T12:56:52;2.50;;;1.83;;
62179;SDS011;48172;53.374;10.722;2022-12-24T13:02:18;2.30;;;2.03;;
62179;SDS011;48172;53.374;10.722;2022-12-24T13:07:58;1.90;;;1.70;;
62179;SDS011;48172;53.374;10.722;2022-12-24T13:21:43;2.17;;;1.80;;
62179;SDS011;48172;53.374;10.722;2022-12-24T13:24:14;2.17;;;1.95;;
62179;SDS011;48172;53.374;10.722;2022-12-24T13:29:42;2.25;;;1.80;;
62179;SDS011;48172;53.374;10.722;2022-12-24T13:34:51;1.95;;;1.70;;
62179;SDS011;48172;53.374;10.722;2022-12-24T13:48:00;1.73;;;1.50;;
62179;SDS011;48172;53.374;10.722;2022-12-24T13:50:54;2.08;;;1.88;;
62179;SDS011;48172;53.374;10.722;2022-12-24T13:53:40;1.80;;;1.58;;
62179;SDS011;48172;53.374;10.722;2022-12-24T13:58:43;2.03;;;1.75;;
62179;SDS011;48172;53.374;10.722;2022-12-24T14:01:45;2.25;;;1.80;;
62179;SDS011;48172;53.374;10.722;2022-12-24T14:04:07;2.03;;;1.60;;
62179;SDS011;48172;53.374;10.722;2022-12-24T14:06:47;1.50;;;1.40;;
62179;SDS011;48172;53.374;10.722;2022-12-24T14:09:17;2.03;;;1.48;;
62179;SDS011;48172;53.374;10.722;2022-12-24T14:14:32;1.92;;;1.73;;
62179;SDS011;48172;53.374;10.722;2022-12-24T14:17:14;2.15;;;1.77;;
62179;SDS011;48172;53.374;10.722;2022-12-24T14:19:58;2.05;;;1.70;;
62179;SDS011;48172;53.374;10.722;2022-12-24T14:22:29;1.92;;;1.60;;
62179;SDS011;48172;53.374;10.722;2022-12-24T14:27:51;2.05;;;1.65;;
62179;SDS011;48172;53.374;10.722;2022-12-24T14:30:24;1.90;;;1.60;;
62179;SDS011;48172;53.374;10.722;2022-12-24T14:32:53;1.80;;;1.70;;
62179;SDS011;48172;53.374;10.722;2022-12-24T14:35:23;2.25;;;2.03;;
62179;SDS011;48172;53.374;10.722;2022-12-24T14:40:47;1.70;;;1.50;;
62179;SDS011;48172;53.374;10.722;2022-12-24T14:48:51;2.13;;;1.85;;
62179;SDS011;48172;53.374;10.722;2022-12-24T14:56:17;2.05;;;1.70;;
62179;SDS011;48172;53.374;10.722;2022-12-24T14:58:45;2.00;;;1.52;;
62179;SDS011;48172;53.374;10.722;2022-12-24T15:04:13;2.20;;;1.90;;
62179;SDS011;48172;53.374;10.722;2022-12-24T15:06:53;1.80;;;1.70;;
62179;SDS011;48172;53.374;10.722;2022-12-24T15:09:23;1.70;;;1.60;;
62179;SDS011;48172;53.374;10.722;2022-12-24T15:11:56;1.85;;;1.50;;
62179;SDS011;48172;53.374;10.722;2022-12-24T15:14:25;2.70;;;2.05;;
62179;SDS011;48172;53.374;10.722;2022-12-24T15:16:59;2.50;;;1.90;;
62179;SDS011;48172;53.374;10.722;2022-12-24T15:19:32;2.15;;;1.90;;
62179;SDS011;48172;53.374;10.722;2022-12-24T15:22:02;2.35;;;1.85;;
62179;SDS011;48172;53.374;10.722;2022-12-24T15:24:34;2.63;;;2.00;;
62179;SDS011;48172;53.374;10.722;2022-12-24T15:27:10;2.13;;;1.65;;
62179;SDS011;48172;53.374;10.722;2022-12-24T15:29:43;2.05;;;1.75;;
62179;SDS011;48172;53.374;10.722;2022-12-24T15:32:13;1.95;;;1.73;;
62179;SDS011;48172;53.374;10.722;2022-12-24T15:34:42;2.22;;;2.03;;
62179;SDS011;48172;53.374;10.722;2022-12-24T15:37:19;3.75;;;1.90;;
62179;SDS011;48172;53.374;10.722;2022-12-24T15:42:21;1.80;;;1.70;;
62179;SDS011;48172;53.374;10.722;2022-12-24T15:47:19;2.13;;;1.80;;
62179;SDS011;48172;53.374;10.722;2022-12-24T15:49:52;1.75;;;1.58;;
62179;SDS011;48172;53.374;10.722;2022-12-24T15:52:20;1.85;;;1.70;;
62179;SDS011;48172;53.374;10.722;2022-12-24T15:54:52;2.05;;;1.73;;
62179;SDS011;48172;53.374;10.722;2022-12-24T15:57:25;2.88;;;1.60;;
62179;SDS011;48172;53.374;10.722;2022-12-24T15:59:56;2.22;;;2.00;;
62179;SDS011;48172;53.374;10.722;2022-12-24T16:10:35;2.08;;;1.65;;
62179;SDS011;48172;53.374;10.722;2022-12-24T16:13:20;1.95;;;1.73;;
62179;SDS011;48172;53.374;10.722;2022-12-24T16:18:33;2.35;;;1.92;;
62179;SDS011;48172;53.374;10.722;2022-12-24T16:21:02;1.92;;;1.60;;
62179;SDS011;48172;53.374;10.722;2022-12-24T16:26:02;2.13;;;1.92;;
62179;SDS011;48172;53.374;10.722;2022-12-24T16:28:29;1.80;;;1.60;;
62179;SDS011;48172;53.374;10.722;2022-12-24T16:30:56;2.05;;;1.85;;
62179;SDS011;48172;53.374;10.722;2022-12-24T16:33:23;2.20;;;2.00;;
62179;SDS011;48172;53.374;10.722;2022-12-24T16:35:50;2.15;;;1.70;;
62179;SDS011;48172;53.374;10.722;2022-12-24T16:38:16;2.75;;;1.60;;
62179;SDS011;48172;53.374;10.722;2022-12-24T16:40:43;2.13;;;1.90;;
62179;SDS011;48172;53.374;10.722;2022-12-24T16:43:09;2.15;;;1.58;;
62179;SDS011;48172;53.374;10.722;2022-12-24T16:46:11;2.20;;;1.80;;
62179;SDS011;48172;53.374;10.722;2022-12-24T16:48:38;2.00;;;1.80;;
62179;SDS011;48172;53.374;10.722;2022-12-24T16:51:05;1.98;;;1.70;;
62179;SDS011;48172;53.374;10.722;2022-12-24T16:53:32;2.50;;;1.90;;
62179;SDS011;48172;53.374;10.722;2022-12-24T16:55:58;2.75;;;1.95;;
62179;SDS011;48172;53.374;10.722;2022-12-24T16:58:25;2.35;;;1.85;;
62179;SDS011;48172;53.374;10.722;2022-12-24T17:00:51;2.15;;;1.90;;
62179;SDS011;48172;53.374;10.722;2022-12-24T17:03:18;2.42;;;2.00;;
62179;SDS011;48172;53.374;10.722;2022-12-24T17:05:45;2.10;;;1.90;;
62179;SDS011;48172;53.374;10.722;2022-12-24T17:08:11;2.75;;;2.00;;
62179;SDS011;48172;53.374;10.722;2022-12-24T17:10:39;1.83;;;1.73;;
62179;SDS011;48172;53.374;10.722;2022-12-24T17:13:05;1.90;;;1.70;;
62179;SDS011;48172;53.374;10.722;2022-12-24T17:15:32;2.25;;;1.83;;